Betsiamites, Canada
Current Conditions -  °F | °C
As of 12:00 PM on Friday 24 Oct 2014 (Local Time) from CYBC Reporting Station
Broken Clouds Broken Clouds  
Wind Chill: 54°   Ceiling: 22000
Heat Index: 54°   Visibility: 9mi
Dew Point: 21°   Wind: 9mph
Humidity: 28%   Direction: 50°NE
Pressure: 29.91"   Gusts: 17mph
Location:  48.95°N, 68.65°W
Report Text: CYBC 241600Z AUTO 05008G15KT 9SM BKN220 12/M06 A2991 RMK SLP129
Loading
Personal Weather Stations






























Interactive Weather Map
Tropical Storm Tracking
New forecast layout! Learn more

10-Day Weather Forecast

Advertisements
Track Severe Weather on mobile